sensor_id;sensor_type;location;lat;lon;timestamp;temperature;humidity
42135;DHT22;28312;43.460;11.810;2023-04-03T00:00:56;7.40;57.50
42135;DHT22;28312;43.460;11.810;2023-04-03T00:05:00;7.30;57.60
42135;DHT22;28312;43.460;11.810;2023-04-03T00:09:03;7.20;57.80
42135;DHT22;28312;43.460;11.810;2023-04-03T00:13:07;7.20;57.90
42135;DHT22;28312;43.460;11.810;2023-04-03T00:17:11;7.10;58.10
42135;DHT22;28312;43.460;11.810;2023-04-03T00:21:19;7.20;58.20
42135;DHT22;28312;43.460;11.810;2023-04-03T00:25:23;7.20;58.10
42135;DHT22;28312;43.460;11.810;2023-04-03T00:29:27;7.20;58.20
42135;DHT22;28312;43.460;11.810;2023-04-03T00:33:30;7.20;58.20
42135;DHT22;28312;43.460;11.810;2023-04-03T00:37:34;7.20;58.30
42135;DHT22;28312;43.460;11.810;2023-04-03T00:41:38;7.20;58.40
42135;DHT22;28312;43.460;11.810;2023-04-03T00:45:45;7.30;58.50
42135;DHT22;28312;43.460;11.810;2023-04-03T00:49:50;7.40;58.50
42135;DHT22;28312;43.460;11.810;2023-04-03T00:53:56;7.50;58.30
42135;DHT22;28312;43.460;11.810;2023-04-03T00:58:02;7.40;58.30
42135;DHT22;28312;43.460;11.810;2023-04-03T01:02:06;7.50;58.70
42135;DHT22;28312;43.460;11.810;2023-04-03T01:06:09;7.80;59.10
42135;DHT22;28312;43.460;11.810;2023-04-03T01:10:15;8.30;59.40
42135;DHT22;28312;43.460;11.810;2023-04-03T01:14:23;8.70;59.10
42135;DHT22;28312;43.460;11.810;2023-04-03T01:18:26;9.00;59.10
42135;DHT22;28312;43.460;11.810;2023-04-03T01:22:35;9.20;59.30
42135;DHT22;28312;43.460;11.810;2023-04-03T01:26:43;9.60;59.80
42135;DHT22;28312;43.460;11.810;2023-04-03T01:35:08;10.20;61.20
42135;DHT22;28312;43.460;11.810;2023-04-03T01:39:12;10.50;60.80
42135;DHT22;28312;43.460;11.810;2023-04-03T01:43:15;10.50;60.70
42135;DHT22;28312;43.460;11.810;2023-04-03T01:47:19;10.60;60.70
42135;DHT22;28312;43.460;11.810;2023-04-03T01:51:23;10.60;60.60
42135;DHT22;28312;43.460;11.810;2023-04-03T01:55:27;10.70;60.90
42135;DHT22;28312;43.460;11.810;2023-04-03T01:59:30;10.70;60.90
42135;DHT22;28312;43.460;11.810;2023-04-03T02:03:34;10.60;61.00
42135;DHT22;28312;43.460;11.810;2023-04-03T02:07:38;10.50;60.90
42135;DHT22;28312;43.460;11.810;2023-04-03T02:11:43;10.60;60.90
42135;DHT22;28312;43.460;11.810;2023-04-03T02:15:47;10.60;61.00
42135;DHT22;28312;43.460;11.810;2023-04-03T02:19:52;10.60;61.10
42135;DHT22;28312;43.460;11.810;2023-04-03T02:23:56;10.60;61.30
42135;DHT22;28312;43.460;11.810;2023-04-03T02:27:59;10.60;61.10
42135;DHT22;28312;43.460;11.810;2023-04-03T02:32:03;10.50;61.10
42135;DHT22;28312;43.460;11.810;2023-04-03T02:36:09;10.50;61.30
42135;DHT22;28312;43.460;11.810;2023-04-03T02:40:16;10.50;61.20
42135;DHT22;28312;43.460;11.810;2023-04-03T02:44:22;10.50;61.00
42135;DHT22;28312;43.460;11.810;2023-04-03T02:48:28;10.40;61.10
42135;DHT22;28312;43.460;11.810;2023-04-03T02:52:32;10.40;61.30
42135;DHT22;28312;43.460;11.810;2023-04-03T02:56:35;10.40;61.10
42135;DHT22;28312;43.460;11.810;2023-04-03T03:00:42;10.40;61.50
42135;DHT22;28312;43.460;11.810;2023-04-03T03:04:45;10.50;62.50
42135;DHT22;28312;43.460;11.810;2023-04-03T03:08:49;10.80;62.50
42135;DHT22;28312;43.460;11.810;2023-04-03T03:12:52;10.90;62.10
42135;DHT22;28312;43.460;11.810;2023-04-03T03:16:58;10.90;61.90
42135;DHT22;28312;43.460;11.810;2023-04-03T03:21:02;10.90;61.90
42135;DHT22;28312;43.460;11.810;2023-04-03T03:25:08;10.90;62.10
42135;DHT22;28312;43.460;11.810;2023-04-03T03:29:12;10.90;61.70
42135;DHT22;28312;43.460;11.810;2023-04-03T03:33:20;10.80;61.80
42135;DHT22;28312;43.460;11.810;2023-04-03T03:37:23;10.80;62.30
42135;DHT22;28312;43.460;11.810;2023-04-03T03:41:27;10.90;62.50
42135;DHT22;28312;43.460;11.810;2023-04-03T03:45:30;11.00;62.60
42135;DHT22;28312;43.460;11.810;2023-04-03T03:49:35;11.00;62.60
42135;DHT22;28312;43.460;11.810;2023-04-03T03:53:38;11.10;62.40
42135;DHT22;28312;43.460;11.810;2023-04-03T03:57:47;11.10;62.30
42135;DHT22;28312;43.460;11.810;2023-04-03T04:01:51;11.10;62.10
42135;DHT22;28312;43.460;11.810;2023-04-03T04:05:57;11.00;61.90
42135;DHT22;28312;43.460;11.810;2023-04-03T04:10:03;10.90;61.90
42135;DHT22;28312;43.460;11.810;2023-04-03T04:14:07;10.90;62.10
42135;DHT22;28312;43.460;11.810;2023-04-03T04:18:13;10.80;62.10
42135;DHT22;28312;43.460;11.810;2023-04-03T04:22:21;10.90;62.70
42135;DHT22;28312;43.460;11.810;2023-04-03T04:26:25;10.90;63.00
42135;DHT22;28312;43.460;11.810;2023-04-03T04:30:30;11.00;63.60
42135;DHT22;28312;43.460;11.810;2023-04-03T04:34:34;11.00;63.50
42135;DHT22;28312;43.460;11.810;2023-04-03T04:38:38;11.00;63.10
42135;DHT22;28312;43.460;11.810;2023-04-03T04:42:42;11.00;63.10
42135;DHT22;28312;43.460;11.810;2023-04-03T04:46:46;10.90;62.90
42135;DHT22;28312;43.460;11.810;2023-04-03T04:50:50;10.80;62.90
42135;DHT22;28312;43.460;11.810;2023-04-03T04:54:54;10.80;63.20
42135;DHT22;28312;43.460;11.810;2023-04-03T04:58:57;10.90;63.60
42135;DHT22;28312;43.460;11.810;2023-04-03T05:03:02;10.90;63.50
42135;DHT22;28312;43.460;11.810;2023-04-03T05:07:06;10.90;63.30
42135;DHT22;28312;43.460;11.810;2023-04-03T05:11:11;10.90;63.20
42135;DHT22;28312;43.460;11.810;2023-04-03T05:15:16;10.80;63.30
42135;DHT22;28312;43.460;11.810;2023-04-03T05:19:24;10.90;63.40
42135;DHT22;28312;43.460;11.810;2023-04-03T05:23:28;10.90;63.30
42135;DHT22;28312;43.460;11.810;2023-04-03T05:27:34;10.90;63.30
42135;DHT22;28312;43.460;11.810;2023-04-03T05:31:38;10.80;63.60
42135;DHT22;28312;43.460;11.810;2023-04-03T05:35:44;11.00;63.90
42135;DHT22;28312;43.460;11.810;2023-04-03T05:39:54;11.00;63.70
42135;DHT22;28312;43.460;11.810;2023-04-03T05:43:58;11.10;63.50
42135;DHT22;28312;43.460;11.810;2023-04-03T05:48:03;11.00;63.50
42135;DHT22;28312;43.460;11.810;2023-04-03T05:52:22;11.10;63.90
42135;DHT22;28312;43.460;11.810;2023-04-03T05:56:27;11.10;64.10
42135;DHT22;28312;43.460;11.810;2023-04-03T06:00:31;11.20;64.00
42135;DHT22;28312;43.460;11.810;2023-04-03T06:04:37;11.20;64.60
42135;DHT22;28312;43.460;11.810;2023-04-03T06:08:42;11.60;65.20
42135;DHT22;28312;43.460;11.810;2023-04-03T06:12:47;12.00;65.30
42135;DHT22;28312;43.460;11.810;2023-04-03T06:16:51;12.50;65.10
42135;DHT22;28312;43.460;11.810;2023-04-03T06:20:55;13.00;64.70
42135;DHT22;28312;43.460;11.810;2023-04-03T06:24:59;13.50;63.90
42135;DHT22;28312;43.460;11.810;2023-04-03T06:29:03;13.90;63.10
42135;DHT22;28312;43.460;11.810;2023-04-03T06:33:06;14.30;61.80
42135;DHT22;28312;43.460;11.810;2023-04-03T06:37:22;14.60;60.40
42135;DHT22;28312;43.460;11.810;2023-04-03T06:41:26;14.70;60.50
42135;DHT22;28312;43.460;11.810;2023-04-03T06:45:29;15.10;59.90
42135;DHT22;28312;43.460;11.810;2023-04-03T06:49:33;15.20;59.50
42135;DHT22;28312;43.460;11.810;2023-04-03T06:53:37;15.20;58.40
42135;DHT22;28312;43.460;11.810;2023-04-03T06:57:40;15.10;57.50
42135;DHT22;28312;43.460;11.810;2023-04-03T07:01:44;15.00;57.50
42135;DHT22;28312;43.460;11.810;2023-04-03T07:05:48;15.10;56.70
42135;DHT22;28312;43.460;11.810;2023-04-03T07:09:51;15.20;55.30
42135;DHT22;28312;43.460;11.810;2023-04-03T07:13:57;15.50;54.60
42135;DHT22;28312;43.460;11.810;2023-04-03T07:18:01;15.70;54.50
42135;DHT22;28312;43.460;11.810;2023-04-03T07:22:04;15.90;52.80
42135;DHT22;28312;43.460;11.810;2023-04-03T07:26:08;16.30;52.20
42135;DHT22;28312;43.460;11.810;2023-04-03T07:30:12;16.80;52.50
42135;DHT22;28312;43.460;11.810;2023-04-03T07:34:17;17.50;50.30
42135;DHT22;28312;43.460;11.810;2023-04-03T07:38:20;17.70;49.20
42135;DHT22;28312;43.460;11.810;2023-04-03T07:42:24;17.80;47.90
42135;DHT22;28312;43.460;11.810;2023-04-03T07:46:29;17.70;45.60
42135;DHT22;28312;43.460;11.810;2023-04-03T07:50:33;17.70;46.00
42135;DHT22;28312;43.460;11.810;2023-04-03T07:54:37;17.70;45.40
42135;DHT22;28312;43.460;11.810;2023-04-03T07:58:40;17.70;45.10
42135;DHT22;28312;43.460;11.810;2023-04-03T08:02:44;17.60;45.60
42135;DHT22;28312;43.460;11.810;2023-04-03T08:06:53;17.70;45.70
42135;DHT22;28312;43.460;11.810;2023-04-03T08:10:59;17.30;44.90
42135;DHT22;28312;43.460;11.810;2023-04-03T08:15:03;17.10;44.80
42135;DHT22;28312;43.460;11.810;2023-04-03T08:19:06;16.80;45.00
42135;DHT22;28312;43.460;11.810;2023-04-03T08:23:20;16.60;44.40
42135;DHT22;28312;43.460;11.810;2023-04-03T08:27:24;16.70;45.40
42135;DHT22;28312;43.460;11.810;2023-04-03T08:31:28;16.70;43.80
42135;DHT22;28312;43.460;11.810;2023-04-03T08:35:31;16.90;44.70
42135;DHT22;28312;43.460;11.810;2023-04-03T08:39:35;17.10;44.20
42135;DHT22;28312;43.460;11.810;2023-04-03T08:44:25;17.10;43.50
42135;DHT22;28312;43.460;11.810;2023-04-03T08:48:34;17.20;43.00
42135;DHT22;28312;43.460;11.810;2023-04-03T08:52:43;17.20;43.20
42135;DHT22;28312;43.460;11.810;2023-04-03T08:56:48;17.20;41.80
42135;DHT22;28312;43.460;11.810;2023-04-03T09:01:00;17.10;42.00
42135;DHT22;28312;43.460;11.810;2023-04-03T09:05:13;17.00;42.10
42135;DHT22;28312;43.460;11.810;2023-04-03T09:18:04;17.70;40.80
42135;DHT22;28312;43.460;11.810;2023-04-03T09:22:13;18.00;39.60
42135;DHT22;28312;43.460;11.810;2023-04-03T09:26:21;17.90;39.20
42135;DHT22;28312;43.460;11.810;2023-04-03T09:30:29;18.20;39.70
42135;DHT22;28312;43.460;11.810;2023-04-03T09:34:36;18.30;37.70
42135;DHT22;28312;43.460;11.810;2023-04-03T09:38:40;18.50;38.00
42135;DHT22;28312;43.460;11.810;2023-04-03T09:42:43;18.40;37.60
42135;DHT22;28312;43.460;11.810;2023-04-03T09:46:53;18.40;37.70
42135;DHT22;28312;43.460;11.810;2023-04-03T09:50:59;18.40;38.20
42135;DHT22;28312;43.460;11.810;2023-04-03T09:55:13;18.30;37.50
42135;DHT22;28312;43.460;11.810;2023-04-03T09:59:17;18.30;37.70
42135;DHT22;28312;43.460;11.810;2023-04-03T10:03:39;18.30;37.60
42135;DHT22;28312;43.460;11.810;2023-04-03T10:07:49;18.40;36.90
42135;DHT22;28312;43.460;11.810;2023-04-03T10:12:08;18.50;37.50
42135;DHT22;28312;43.460;11.810;2023-04-03T10:16:15;18.70;36.90
42135;DHT22;28312;43.460;11.810;2023-04-03T10:20:47;18.80;36.80
42135;DHT22;28312;43.460;11.810;2023-04-03T10:29:02;18.90;36.90
42135;DHT22;28312;43.460;11.810;2023-04-03T10:37:27;19.00;36.90
42135;DHT22;28312;43.460;11.810;2023-04-03T10:46:05;19.10;36.90
42135;DHT22;28312;43.460;11.810;2023-04-03T10:54:38;19.20;36.80
42135;DHT22;28312;43.460;11.810;2023-04-03T10:58:45;19.30;36.80
42135;DHT22;28312;43.460;11.810;2023-04-03T11:03:00;19.20;36.30
42135;DHT22;28312;43.460;11.810;2023-04-03T11:07:26;19.10;36.90
42135;DHT22;28312;43.460;11.810;2023-04-03T11:11:33;19.10;36.20
42135;DHT22;28312;43.460;11.810;2023-04-03T11:15:38;18.90;36.80
42135;DHT22;28312;43.460;11.810;2023-04-03T11:24:05;18.70;36.10
42135;DHT22;28312;43.460;11.810;2023-04-03T11:28:15;18.50;36.50
42135;DHT22;28312;43.460;11.810;2023-04-03T11:36:58;18.40;35.80
42135;DHT22;28312;43.460;11.810;2023-04-03T11:41:05;18.10;36.10
42135;DHT22;28312;43.460;11.810;2023-04-03T11:50:02;17.80;35.80
42135;DHT22;28312;43.460;11.810;2023-04-03T11:55:34;17.60;36.40
42135;DHT22;28312;43.460;11.810;2023-04-03T12:08:25;17.40;36.60
42135;DHT22;28312;43.460;11.810;2023-04-03T12:12:38;17.40;36.40
42135;DHT22;28312;43.460;11.810;2023-04-03T12:16:45;17.40;36.70
42135;DHT22;28312;43.460;11.810;2023-04-03T12:20:55;17.40;36.90
42135;DHT22;28312;43.460;11.810;2023-04-03T12:38:58;17.20;36.80
42135;DHT22;28312;43.460;11.810;2023-04-03T12:47:43;16.80;36.00
42135;DHT22;28312;43.460;11.810;2023-04-03T12:51:48;16.70;36.80
42135;DHT22;28312;43.460;11.810;2023-04-03T12:55:56;16.70;36.70
42135;DHT22;28312;43.460;11.810;2023-04-03T12:59:59;16.60;36.50
42135;DHT22;28312;43.460;11.810;2023-04-03T13:04:05;16.60;37.00
42135;DHT22;28312;43.460;11.810;2023-04-03T13:08:12;16.90;37.00
42135;DHT22;28312;43.460;11.810;2023-04-03T13:12:18;17.10;37.10
42135;DHT22;28312;43.460;11.810;2023-04-03T13:16:23;17.30;36.80
42135;DHT22;28312;43.460;11.810;2023-04-03T13:20:30;17.40;36.00
42135;DHT22;28312;43.460;11.810;2023-04-03T13:24:38;17.30;35.70
42135;DHT22;28312;43.460;11.810;2023-04-03T13:28:43;17.20;35.60
42135;DHT22;28312;43.460;11.810;2023-04-03T13:32:47;17.20;35.60
42135;DHT22;28312;43.460;11.810;2023-04-03T13:40:58;17.00;35.10
42135;DHT22;28312;43.460;11.810;2023-04-03T13:45:30;16.90;35.20
42135;DHT22;28312;43.460;11.810;2023-04-03T13:49:35;16.80;35.40
42135;DHT22;28312;43.460;11.810;2023-04-03T13:53:49;16.80;36.00
42135;DHT22;28312;43.460;11.810;2023-04-03T13:57:57;17.00;36.20
42135;DHT22;28312;43.460;11.810;2023-04-03T14:06:07;17.10;35.90
42135;DHT22;28312;43.460;11.810;2023-04-03T14:10:11;17.10;35.90
42135;DHT22;28312;43.460;11.810;2023-04-03T14:14:24;16.90;35.50
42135;DHT22;28312;43.460;11.810;2023-04-03T14:18:29;16.80;35.70
42135;DHT22;28312;43.460;11.810;2023-04-03T14:22:33;16.70;36.10
42135;DHT22;28312;43.460;11.810;2023-04-03T14:26:38;16.70;36.20
42135;DHT22;28312;43.460;11.810;2023-04-03T14:30:41;16.60;36.30
42135;DHT22;28312;43.460;11.810;2023-04-03T14:34:45;16.60;36.40
42135;DHT22;28312;43.460;11.810;2023-04-03T14:38:49;16.50;36.20
42135;DHT22;28312;43.460;11.810;2023-04-03T14:42:55;16.30;36.50
42135;DHT22;28312;43.460;11.810;2023-04-03T14:47:00;16.20;36.70
42135;DHT22;28312;43.460;11.810;2023-04-03T14:51:04;16.10;36.40
42135;DHT22;28312;43.460;11.810;2023-04-03T14:55:09;16.00;36.40
42135;DHT22;28312;43.460;11.810;2023-04-03T14:59:13;16.00;36.60
42135;DHT22;28312;43.460;11.810;2023-04-03T15:03:21;16.10;36.60
42135;DHT22;28312;43.460;11.810;2023-04-03T15:07:27;16.10;36.70
42135;DHT22;28312;43.460;11.810;2023-04-03T15:11:32;16.20;36.90
42135;DHT22;28312;43.460;11.810;2023-04-03T15:15:35;16.10;35.90
42135;DHT22;28312;43.460;11.810;2023-04-03T15:19:40;15.80;36.10
42135;DHT22;28312;43.460;11.810;2023-04-03T15:23:44;15.70;36.40
42135;DHT22;28312;43.460;11.810;2023-04-03T15:27:48;15.60;36.50
42135;DHT22;28312;43.460;11.810;2023-04-03T15:31:52;15.40;37.10
42135;DHT22;28312;43.460;11.810;2023-04-03T15:35:56;15.30;37.30
42135;DHT22;28312;43.460;11.810;2023-04-03T15:40:11;15.20;37.40
42135;DHT22;28312;43.460;11.810;2023-04-03T15:44:15;15.00;37.70
42135;DHT22;28312;43.460;11.810;2023-04-03T15:48:22;14.90;37.90
42135;DHT22;28312;43.460;11.810;2023-04-03T15:52:25;14.80;38.10
42135;DHT22;28312;43.460;11.810;2023-04-03T15:56:29;14.70;38.10
42135;DHT22;28312;43.460;11.810;2023-04-03T16:00:33;14.60;38.20
42135;DHT22;28312;43.460;11.810;2023-04-03T16:04:36;14.50;38.20
42135;DHT22;28312;43.460;11.810;2023-04-03T16:08:40;14.30;38.40
42135;DHT22;28312;43.460;11.810;2023-04-03T16:12:45;14.20;38.50
42135;DHT22;28312;43.460;11.810;2023-04-03T16:16:49;14.00;38.80
42135;DHT22;28312;43.460;11.810;2023-04-03T16:20:53;13.70;39.00
42135;DHT22;28312;43.460;11.810;2023-04-03T16:24:56;13.40;39.50
42135;DHT22;28312;43.460;11.810;2023-04-03T16:29:02;13.20;40.00
42135;DHT22;28312;43.460;11.810;2023-04-03T16:33:06;13.00;40.30
42135;DHT22;28312;43.460;11.810;2023-04-03T16:37:10;12.90;40.70
42135;DHT22;28312;43.460;11.810;2023-04-03T16:41:14;12.80;41.00
42135;DHT22;28312;43.460;11.810;2023-04-03T16:45:18;12.70;41.40
42135;DHT22;28312;43.460;11.810;2023-04-03T16:49:22;12.50;41.50
42135;DHT22;28312;43.460;11.810;2023-04-03T16:53:26;12.50;41.60
42135;DHT22;28312;43.460;11.810;2023-04-03T16:57:30;12.30;41.80
42135;DHT22;28312;43.460;11.810;2023-04-03T17:01:34;12.10;42.10
42135;DHT22;28312;43.460;11.810;2023-04-03T17:05:38;12.00;42.30
42135;DHT22;28312;43.460;11.810;2023-04-03T17:09:42;11.80;42.50
42135;DHT22;28312;43.460;11.810;2023-04-03T17:13:45;11.60;42.70
42135;DHT22;28312;43.460;11.810;2023-04-03T17:17:49;11.50;43.30
42135;DHT22;28312;43.460;11.810;2023-04-03T17:21:54;11.30;43.60
42135;DHT22;28312;43.460;11.810;2023-04-03T17:25:58;11.20;43.90
42135;DHT22;28312;43.460;11.810;2023-04-03T17:30:04;11.00;44.20
42135;DHT22;28312;43.460;11.810;2023-04-03T17:34:08;10.80;44.60
42135;DHT22;28312;43.460;11.810;2023-04-03T17:38:14;10.70;44.90
42135;DHT22;28312;43.460;11.810;2023-04-03T17:42:18;10.50;44.80
42135;DHT22;28312;43.460;11.810;2023-04-03T17:46:25;10.40;45.20
42135;DHT22;28312;43.460;11.810;2023-04-03T17:50:29;10.20;45.60
42135;DHT22;28312;43.460;11.810;2023-04-03T17:54:33;10.20;45.90
42135;DHT22;28312;43.460;11.810;2023-04-03T17:58:36;10.00;45.90
42135;DHT22;28312;43.460;11.810;2023-04-03T18:02:40;9.90;46.10
42135;DHT22;28312;43.460;11.810;2023-04-03T18:06:49;9.80;46.20
42135;DHT22;28312;43.460;11.810;2023-04-03T18:10:53;9.70;46.70
42135;DHT22;28312;43.460;11.810;2023-04-03T18:14:59;9.70;46.80
42135;DHT22;28312;43.460;11.810;2023-04-03T18:19:04;9.60;46.90
42135;DHT22;28312;43.460;11.810;2023-04-03T18:23:26;9.60;47.30
42135;DHT22;28312;43.460;11.810;2023-04-03T18:27:30;9.40;47.40
42135;DHT22;28312;43.460;11.810;2023-04-03T18:31:34;9.40;47.60
42135;DHT22;28312;43.460;11.810;2023-04-03T18:35:40;9.30;47.30
42135;DHT22;28312;43.460;11.810;2023-04-03T18:39:44;9.20;47.30
42135;DHT22;28312;43.460;11.810;2023-04-03T18:43:48;9.20;47.40
42135;DHT22;28312;43.460;11.810;2023-04-03T18:47:51;9.10;47.30
42135;DHT22;28312;43.460;11.810;2023-04-03T18:51:55;9.00;47.50
42135;DHT22;28312;43.460;11.810;2023-04-03T18:55:59;9.00;47.90
42135;DHT22;28312;43.460;11.810;2023-04-03T19:00:03;9.00;48.10
42135;DHT22;28312;43.460;11.810;2023-04-03T19:04:08;9.00;48.30
42135;DHT22;28312;43.460;11.810;2023-04-03T19:08:13;8.90;48.40
42135;DHT22;28312;43.460;11.810;2023-04-03T19:12:16;8.90;48.20
42135;DHT22;28312;43.460;11.810;2023-04-03T19:16:20;8.80;48.40
42135;DHT22;28312;43.460;11.810;2023-04-03T19:20:23;8.80;48.80
42135;DHT22;28312;43.460;11.810;2023-04-03T19:24:27;8.70;48.80
42135;DHT22;28312;43.460;11.810;2023-04-03T19:28:31;8.70;49.10
42135;DHT22;28312;43.460;11.810;2023-04-03T19:32:35;8.70;49.00
42135;DHT22;28312;43.460;11.810;2023-04-03T19:36:39;8.70;48.80
42135;DHT22;28312;43.460;11.810;2023-04-03T19:40:45;8.60;49.00
42135;DHT22;28312;43.460;11.810;2023-04-03T19:44:49;8.50;49.30
42135;DHT22;28312;43.460;11.810;2023-04-03T19:48:54;8.60;49.50
42135;DHT22;28312;43.460;11.810;2023-04-03T19:52:59;8.60;49.90
42135;DHT22;28312;43.460;11.810;2023-04-03T19:57:03;8.60;50.20
42135;DHT22;28312;43.460;11.810;2023-04-03T20:01:07;8.60;50.20
42135;DHT22;28312;43.460;11.810;2023-04-03T20:05:12;8.60;50.00
42135;DHT22;28312;43.460;11.810;2023-04-03T20:09:15;8.60;49.90
42135;DHT22;28312;43.460;11.810;2023-04-03T20:13:21;8.50;49.90
42135;DHT22;28312;43.460;11.810;2023-04-03T20:17:24;8.50;49.80
42135;DHT22;28312;43.460;11.810;2023-04-03T20:21:32;8.50;49.90
42135;DHT22;28312;43.460;11.810;2023-04-03T20:25:42;8.60;50.10
42135;DHT22;28312;43.460;11.810;2023-04-03T20:30:04;8.60;49.90
42135;DHT22;28312;43.460;11.810;2023-04-03T20:34:10;8.70;49.80
42135;DHT22;28312;43.460;11.810;2023-04-03T20:38:15;8.70;49.60
42135;DHT22;28312;43.460;11.810;2023-04-03T20:42:19;8.60;49.40
42135;DHT22;28312;43.460;11.810;2023-04-03T20:46:23;8.60;49.50
42135;DHT22;28312;43.460;11.810;2023-04-03T20:50:44;8.50;49.60
42135;DHT22;28312;43.460;11.810;2023-04-03T20:54:50;8.50;49.60
42135;DHT22;28312;43.460;11.810;2023-04-03T20:58:54;8.50;49.60
42135;DHT22;28312;43.460;11.810;2023-04-03T21:03:00;8.50;49.50
42135;DHT22;28312;43.460;11.810;2023-04-03T21:20:31;8.30;49.50
42135;DHT22;28312;43.460;11.810;2023-04-03T21:24:35;8.30;49.50
42135;DHT22;28312;43.460;11.810;2023-04-03T21:28:39;8.40;49.70
42135;DHT22;28312;43.460;11.810;2023-04-03T21:32:44;8.30;49.60
42135;DHT22;28312;43.460;11.810;2023-04-03T21:36:47;8.30;49.60
42135;DHT22;28312;43.460;11.810;2023-04-03T21:40:55;8.20;49.70
42135;DHT22;28312;43.460;11.810;2023-04-03T21:45:00;8.20;49.70
42135;DHT22;28312;43.460;11.810;2023-04-03T21:49:04;8.20;49.70
42135;DHT22;28312;43.460;11.810;2023-04-03T21:53:07;8.20;49.80
42135;DHT22;28312;43.460;11.810;2023-04-03T21:57:11;8.10;50.00
42135;DHT22;28312;43.460;11.810;2023-04-03T22:01:16;8.00;49.90
42135;DHT22;28312;43.460;11.810;2023-04-03T22:05:22;8.00;50.00
42135;DHT22;28312;43.460;11.810;2023-04-03T22:09:26;7.90;49.90
42135;DHT22;28312;43.460;11.810;2023-04-03T22:13:29;7.80;49.80
42135;DHT22;28312;43.460;11.810;2023-04-03T22:17:33;7.70;50.00
42135;DHT22;28312;43.460;11.810;2023-04-03T22:21:37;7.70;50.40
42135;DHT22;28312;43.460;11.810;2023-04-03T22:25:40;7.70;50.50
42135;DHT22;28312;43.460;11.810;2023-04-03T22:29:43;7.70;50.60
42135;DHT22;28312;43.460;11.810;2023-04-03T22:33:47;7.70;50.60
42135;DHT22;28312;43.460;11.810;2023-04-03T22:37:53;7.70;50.90
42135;DHT22;28312;43.460;11.810;2023-04-03T22:41:56;7.70;51.10
42135;DHT22;28312;43.460;11.810;2023-04-03T22:46:01;7.60;51.30
42135;DHT22;28312;43.460;11.810;2023-04-03T22:50:06;7.60;51.40
42135;DHT22;28312;43.460;11.810;2023-04-03T22:54:10;7.60;51.30
42135;DHT22;28312;43.460;11.810;2023-04-03T22:58:14;7.60;51.40
42135;DHT22;28312;43.460;11.810;2023-04-03T23:02:17;7.60;51.30
42135;DHT22;28312;43.460;11.810;2023-04-03T23:06:21;7.50;51.40
42135;DHT22;28312;43.460;11.810;2023-04-03T23:10:25;7.50;51.40
42135;DHT22;28312;43.460;11.810;2023-04-03T23:14:29;7.50;51.40
42135;DHT22;28312;43.460;11.810;2023-04-03T23:18:33;7.50;51.30
42135;DHT22;28312;43.460;11.810;2023-04-03T23:22:36;7.40;51.50
42135;DHT22;28312;43.460;11.810;2023-04-03T23:26:40;7.30;51.40
42135;DHT22;28312;43.460;11.810;2023-04-03T23:30:44;7.30;51.50
42135;DHT22;28312;43.460;11.810;2023-04-03T23:34:48;7.30;51.60
42135;DHT22;28312;43.460;11.810;2023-04-03T23:38:55;7.30;51.50
42135;DHT22;28312;43.460;11.810;2023-04-03T23:42:59;7.20;51.40
42135;DHT22;28312;43.460;11.810;2023-04-03T23:47:02;7.20;51.30
42135;DHT22;28312;43.460;11.810;2023-04-03T23:51:06;7.20;51.30
42135;DHT22;28312;43.460;11.810;2023-04-03T23:55:10;7.20;51.20
42135;DHT22;28312;43.460;11.810;2023-04-03T23:59:14;7.20;51.20
